Time;durP1;ratioP1;P1;durP2;ratioP2;P2;SDS_P1;SDS_P2;PMS_P1;PMS_P2;Temp;Humidity;BMP_temperature;BMP_pressure;BME280_temperature;BME280_humidity;BME280_pressure;Samples;Min_cycle;Max_cycle;Signal;HPM_P1;HPM_P2
2021/09/30 00:00:50;;;;;;;;;;;11.30;99.90;;;;;;5043206;28;19991;-85
2021/09/30 00:03:16;;;;;;;;;;;11.30;99.90;;;;;;5042357;28;19950;-85
2021/09/30 00:05:43;;;;;;;;;;;11.30;99.90;;;;;;5042687;28;19977;-85
2021/09/30 00:08:09;;;;;;;;;;;11.30;99.90;;;;;;5042184;28;19953;-84
2021/09/30 00:10:40;;;;;;;;;;;11.30;99.90;;;;;;5043265;28;19953;-84
2021/09/30 00:13:12;;;;;;;;;;;11.30;99.90;;;;;;5042880;28;20000;-83
2021/09/30 00:15:52;;;;;;;;;;;11.30;99.90;;;;;;5042810;28;19991;-84
2021/09/30 00:18:38;;;;;;;;;;;11.30;99.90;;;;;;5041768;28;19956;-85
2021/09/30 00:34:55;;;;;;;;;;;11.10;99.90;;;;;;5041393;28;20413;-84
2021/09/30 00:40:19;;;;;;;;;;;11.10;99.90;;;;;;5042116;28;20329;-84
2021/09/30 00:45:49;;;;;;;;;;;11.10;99.90;;;;;;4962343;29;19959;-84
2021/09/30 00:48:44;;;;;;;;;;;11.10;99.90;;;;;;4962957;29;20422;-84
2021/09/30 00:51:19;;;;;;;;;;;11.00;99.90;;;;;;5014601;28;19964;-85
2021/09/30 00:54:06;;;;;;;;;;;11.10;99.90;;;;;;5042860;28;19967;-84
2021/09/30 01:19:24;;;;;;;;;;;10.90;99.90;;;;;;5060399;28;19947;-84
2021/09/30 01:47:12;;;;;;;;;;;10.90;99.90;;;;;;5042098;28;20097;-83
2021/09/30 01:58:15;;;;;;;;;;;10.80;99.90;;;;;;5058551;28;19964;-83
2021/09/30 02:20:17;;;;;;;;;;;10.80;99.90;;;;;;5041911;28;19948;-84
2021/09/30 02:23:05;;;;;;;;;;;10.80;99.90;;;;;;5042470;28;19953;-84
2021/09/30 02:28:33;;;;;;;;;;;10.70;99.90;;;;;;5027213;28;19945;-83
2021/09/30 02:39:48;;;;;;;;;;;10.70;99.90;;;;;;5038125;28;19945;-84
2021/09/30 02:58:50;;;;;;;;;;;10.70;99.90;;;;;;5008313;28;19949;-83
2021/09/30 03:01:17;;;;;;;;;;;10.70;99.90;;;;;;5042599;28;19958;-84
2021/09/30 03:03:44;;;;;;;;;;;10.60;99.90;;;;;;5042881;28;20388;-84
2021/09/30 03:06:12;;;;;;;;;;;10.60;99.90;;;;;;5041501;28;20008;-84
2021/09/30 03:08:43;;;;;;;;;;;10.60;99.90;;;;;;5041372;28;19946;-84
2021/09/30 03:11:10;;;;;;;;;;;10.70;99.90;;;;;;5040790;28;20304;-84
2021/09/30 03:13:37;;;;;;;;;;;10.70;99.90;;;;;;5040719;28;19965;-84
2021/09/30 03:16:09;;;;;;;;;;;10.60;99.90;;;;;;5040883;28;20421;-84
2021/09/30 03:18:51;;;;;;;;;;;10.70;99.90;;;;;;5040408;28;19952;-84
2021/09/30 03:24:04;;;;;;;;;;;10.70;99.90;;;;;;5040390;28;19950;-84
2021/09/30 03:26:31;;;;;;;;;;;10.60;99.90;;;;;;5044553;28;19968;-83
2021/09/30 03:28:59;;;;;;;;;;;10.70;99.90;;;;;;5046654;28;20367;-84
2021/09/30 03:31:26;;;;;;;;;;;10.60;99.90;;;;;;5046970;28;19948;-83
2021/09/30 03:33:52;;;;;;;;;;;10.70;99.90;;;;;;5047317;28;19987;-84
2021/09/30 03:36:20;;;;;;;;;;;10.70;99.90;;;;;;5049679;28;19967;-83
2021/09/30 03:38:46;;;;;;;;;;;10.60;99.90;;;;;;5045911;28;19946;-84
2021/09/30 03:41:13;;;;;;;;;;;10.60;99.90;;;;;;5042052;28;20003;-83
2021/09/30 03:43:39;;;;;;;;;;;10.60;99.90;;;;;;5041748;28;19947;-83
2021/09/30 03:46:07;;;;;;;;;;;10.60;99.90;;;;;;5040804;28;20052;-83
2021/09/30 03:48:34;;;;;;;;;;;10.60;99.90;;;;;;5040877;28;20023;-85
2021/09/30 03:51:08;;;;;;;;;;;12.60;99.90;;;;;;5040455;28;20435;-84
2021/09/30 03:53:49;;;;;;;;;;;10.60;99.90;;;;;;5044405;28;19962;-84
2021/09/30 03:56:32;;;;;;;;;;;10.60;99.90;;;;;;5044903;28;19996;-85
2021/09/30 04:01:55;;;;;;;;;;;10.60;99.90;;;;;;5024269;28;19938;-84
2021/09/30 04:04:21;;;;;;;;;;;10.60;99.90;;;;;;5044104;28;19956;-84
2021/09/30 04:06:48;;;;;;;;;;;10.60;99.90;;;;;;5070777;22;20441;-86
2021/09/30 04:09:16;;;;;;;;;;;11.60;99.90;;;;;;5054647;28;20373;-87
2021/09/30 04:11:43;;;;;;;;;;;10.50;99.90;;;;;;5054199;28;19955;-87
2021/09/30 04:14:16;;;;;;;;;;;10.50;99.90;;;;;;5054272;28;19970;-88
2021/09/30 04:16:47;;;;;;;;;;;10.50;99.90;;;;;;5056885;28;19965;-88
2021/09/30 04:19:14;;;;;;;;;;;10.50;99.90;;;;;;5059918;28;19936;-87
2021/09/30 04:21:40;;;;;;;;;;;10.30;99.90;;;;;;5059498;28;19943;-87
2021/09/30 04:24:07;;;;;;;;;;;10.60;99.90;;;;;;5057101;28;19950;-87
2021/09/30 04:26:35;;;;;;;;;;;10.50;99.90;;;;;;5051621;28;19992;-87
2021/09/30 04:29:01;;;;;;;;;;;10.50;99.90;;;;;;5052585;28;19953;-87
2021/09/30 04:31:28;;;;;;;;;;;10.50;99.90;;;;;;5053365;28;19949;-88
2021/09/30 04:33:54;;;;;;;;;;;10.50;99.90;;;;;;5053521;28;20356;-87
2021/09/30 04:36:21;;;;;;;;;;;10.50;99.90;;;;;;5053998;28;19954;-87
2021/09/30 04:38:48;;;;;;;;;;;10.50;99.90;;;;;;5058199;28;19938;-87
2021/09/30 04:41:15;;;;;;;;;;;10.50;99.90;;;;;;5057526;28;19941;-88
2021/09/30 04:43:44;;;;;;;;;;;10.50;99.90;;;;;;5054904;28;20002;-87
2021/09/30 04:46:11;;;;;;;;;;;10.50;99.90;;;;;;5053543;28;19942;-88
2021/09/30 04:48:44;;;;;;;;;;;10.30;99.90;;;;;;5055563;28;19942;-87
2021/09/30 04:51:10;;;;;;;;;;;10.50;99.90;;;;;;5054654;28;19953;-86
2021/09/30 04:53:37;;;;;;;;;;;10.30;99.90;;;;;;5052588;28;20424;-87
2021/09/30 04:56:04;;;;;;;;;;;10.50;99.90;;;;;;5057437;28;19946;-86
2021/09/30 04:58:31;;;;;;;;;;;10.50;99.90;;;;;;5047750;28;19995;-87
2021/09/30 05:00:58;;;;;;;;;;;10.50;99.90;;;;;;5053321;28;19950;-87
2021/09/30 05:03:25;;;;;;;;;;;10.50;99.90;;;;;;5055496;28;19969;-87
2021/09/30 05:05:52;;;;;;;;;;;10.50;99.90;;;;;;5057047;28;19948;-87
2021/09/30 05:08:18;;;;;;;;;;;10.50;99.90;;;;;;5055092;28;19969;-86
2021/09/30 05:10:46;;;;;;;;;;;10.50;99.90;;;;;;5052076;28;19950;-87
2021/09/30 05:13:17;;;;;;;;;;;10.50;99.90;;;;;;5053990;28;19948;-86
2021/09/30 05:15:46;;;;;;;;;;;10.50;99.90;;;;;;5051881;28;19952;-86
2021/09/30 05:18:18;;;;;;;;;;;10.50;99.90;;;;;;5049007;28;19966;-86
2021/09/30 05:20:46;;;;;;;;;;;10.50;99.90;;;;;;5045803;28;19940;-87
2021/09/30 05:23:16;;;;;;;;;;;10.60;99.90;;;;;;5049766;28;19989;-86
2021/09/30 05:28:26;;;;;;;;;;;10.60;99.90;;;;;;5033426;28;19958;-86
2021/09/30 05:31:05;;;;;;;;;;;10.60;99.90;;;;;;5039680;28;19996;-87
2021/09/30 05:33:42;;;;;;;;;;;12.70;99.90;;;;;;5039784;28;19969;-87
2021/09/30 05:36:08;;;;;;;;;;;10.70;99.90;;;;;;5039273;28;19949;-87
2021/09/30 05:38:47;;;;;;;;;;;10.10;99.90;;;;;;5039478;28;19947;-87
2021/09/30 05:41:17;;;;;;;;;;;10.90;99.90;;;;;;5038718;28;19971;-86
2021/09/30 05:43:51;;;;;;;;;;;10.80;99.90;;;;;;5039332;28;19967;-86
2021/09/30 05:49:20;;;;;;;;;;;10.80;99.90;;;;;;5030872;28;19942;-88
2021/09/30 05:52:00;;;;;;;;;;;12.00;99.90;;;;;;5042332;28;19945;-91
2021/09/30 05:54:33;;;;;;;;;;;11.50;99.90;;;;;;5041014;28;19996;-92
2021/09/30 05:57:31;;;;;;;;;;;10.50;99.90;;;;;;5040863;28;19964;-91
2021/09/30 06:17:38;;;;;;;;;;;11.20;99.90;;;;;;5030685;28;19980;-90
2021/09/30 06:26:16;;;;;;;;;;;11.50;99.90;;;;;;4992908;28;19940;-90
2021/09/30 06:28:43;;;;;;;;;;;11.60;99.90;;;;;;5055829;23;20453;-83
2021/09/30 06:31:09;;;;;;;;;;;11.20;99.90;;;;;;5024771;28;19950;-84
2021/09/30 06:33:37;;;;;;;;;;;11.20;99.90;;;;;;5023789;28;19984;-84
2021/09/30 06:36:04;;;;;;;;;;;11.20;99.90;;;;;;5023986;28;19949;-84
2021/09/30 06:38:31;;;;;;;;;;;11.20;99.90;;;;;;5025285;28;19968;-84
2021/09/30 06:40:57;;;;;;;;;;;11.30;99.90;;;;;;5026501;28;20356;-84
2021/09/30 06:43:24;;;;;;;;;;;11.30;99.90;;;;;;5026082;28;20367;-84
2021/09/30 06:45:51;;;;;;;;;;;11.30;99.90;;;;;;5023592;28;19952;-84
2021/09/30 06:48:18;;;;;;;;;;;11.30;99.90;;;;;;5023872;28;19963;-84
2021/09/30 06:50:46;;;;;;;;;;;11.40;99.90;;;;;;5019504;28;20366;-85
2021/09/30 06:53:12;;;;;;;;;;;11.30;99.90;;;;;;5018192;28;19949;-85
2021/09/30 06:55:42;;;;;;;;;;;11.30;99.90;;;;;;5017165;28;19972;-85
2021/09/30 06:58:10;;;;;;;;;;;11.30;99.90;;;;;;5020122;28;20048;-85
2021/09/30 07:00:36;;;;;;;;;;;11.30;99.90;;;;;;5019715;28;19954;-84
2021/09/30 07:03:03;;;;;;;;;;;11.30;99.90;;;;;;5020837;28;19962;-84
2021/09/30 07:05:29;;;;;;;;;;;11.30;99.90;;;;;;5018926;28;19957;-84
2021/09/30 07:07:59;;;;;;;;;;;11.40;99.90;;;;;;5019727;28;20055;-81
2021/09/30 07:10:26;;;;;;;;;;;11.40;99.90;;;;;;5025854;28;19983;-81
2021/09/30 07:12:52;;;;;;;;;;;11.40;99.90;;;;;;5027636;28;19978;-81
2021/09/30 07:15:19;;;;;;;;;;;11.30;99.90;;;;;;5030235;28;19950;-78
2021/09/30 07:17:45;;;;;;;;;;;11.40;99.90;;;;;;5028974;28;19971;-80
2021/09/30 07:20:12;;;;;;;;;;;11.40;99.90;;;;;;5030816;28;19959;-80
2021/09/30 07:22:39;;;;;;;;;;;11.40;99.90;;;;;;5030820;28;19948;-80
2021/09/30 07:25:09;;;;;;;;;;;11.50;99.90;;;;;;5031046;28;19963;-80
2021/09/30 07:27:36;;;;;;;;;;;11.50;99.90;;;;;;5029680;28;20384;-82
2021/09/30 07:30:03;;;;;;;;;;;11.40;99.90;;;;;;5029897;28;19999;-81
2021/09/30 07:32:29;;;;;;;;;;;11.50;99.90;;;;;;5028934;28;19950;-81
2021/09/30 07:34:55;;;;;;;;;;;11.40;99.90;;;;;;5029326;28;19954;-81
2021/09/30 07:37:22;;;;;;;;;;;11.50;99.90;;;;;;5029016;28;20028;-80
2021/09/30 07:39:48;;;;;;;;;;;11.50;99.90;;;;;;5028893;28;19948;-81
2021/09/30 07:42:16;;;;;;;;;;;11.50;99.90;;;;;;5029743;28;20288;-80
2021/09/30 07:44:43;;;;;;;;;;;11.60;99.90;;;;;;5028293;28;19969;-80
2021/09/30 07:47:09;;;;;;;;;;;11.60;99.90;;;;;;5029139;28;20350;-81
2021/09/30 07:49:36;;;;;;;;;;;11.60;99.90;;;;;;5028007;28;19959;-82
2021/09/30 07:52:03;;;;;;;;;;;11.60;99.90;;;;;;5024930;28;19954;-81
2021/09/30 07:54:29;;;;;;;;;;;11.60;99.90;;;;;;5027505;28;19951;-81
2021/09/30 07:57:05;;;;;;;;;;;11.60;99.90;;;;;;5028619;28;20016;-81
2021/09/30 07:59:33;;;;;;;;;;;11.70;99.90;;;;;;5027904;28;19944;-81
2021/09/30 08:02:00;;;;;;;;;;;11.70;99.90;;;;;;5028370;28;20000;-80
2021/09/30 08:04:26;;;;;;;;;;;11.70;99.90;;;;;;5027716;28;20019;-82
2021/09/30 08:06:52;;;;;;;;;;;11.80;99.90;;;;;;5029238;28;19972;-81
2021/09/30 08:09:19;;;;;;;;;;;11.80;99.90;;;;;;5028295;28;19993;-81
2021/09/30 08:11:46;;;;;;;;;;;11.90;99.90;;;;;;5032051;28;19959;-81
2021/09/30 08:14:12;;;;;;;;;;;11.90;99.90;;;;;;5032657;28;19948;-81
2021/09/30 08:16:41;;;;;;;;;;;11.90;99.90;;;;;;5031774;28;19959;-82
2021/09/30 08:19:07;;;;;;;;;;;11.90;99.90;;;;;;5033225;28;19950;-82
2021/09/30 08:21:34;;;;;;;;;;;11.90;99.90;;;;;;5030428;28;19952;-81
2021/09/30 08:24:00;;;;;;;;;;;11.80;99.90;;;;;;5029853;28;20009;-82
2021/09/30 08:26:28;;;;;;;;;;;11.90;99.90;;;;;;5029141;28;19960;-82
2021/09/30 08:28:54;;;;;;;;;;;12.00;99.90;;;;;;5028346;28;20013;-81
2021/09/30 08:31:22;;;;;;;;;;;12.00;99.90;;;;;;5027974;28;20033;-81
2021/09/30 08:33:50;;;;;;;;;;;12.00;99.90;;;;;;5029198;28;20026;-82
2021/09/30 08:36:17;;;;;;;;;;;12.10;99.90;;;;;;5029712;28;20337;-82
2021/09/30 08:38:44;;;;;;;;;;;12.10;99.90;;;;;;5027902;28;19963;-81
2021/09/30 08:41:11;;;;;;;;;;;12.20;99.90;;;;;;5027954;28;19974;-81
2021/09/30 08:43:38;;;;;;;;;;;12.20;99.90;;;;;;5029174;28;19965;-81
2021/09/30 08:46:06;;;;;;;;;;;12.20;99.90;;;;;;5028413;28;19948;-81
2021/09/30 08:48:33;;;;;;;;;;;12.30;99.90;;;;;;5028006;28;19991;-81
2021/09/30 08:51:01;;;;;;;;;;;12.30;99.90;;;;;;5027559;28;19947;-82
2021/09/30 08:53:28;;;;;;;;;;;12.40;99.90;;;;;;5028486;28;20008;-81
2021/09/30 08:55:54;;;;;;;;;;;12.50;99.90;;;;;;5028187;28;19952;-82
2021/09/30 08:58:20;;;;;;;;;;;12.60;99.90;;;;;;5026676;28;19964;-82
2021/09/30 09:00:47;;;;;;;;;;;12.70;99.90;;;;;;5027918;28;19948;-82
2021/09/30 09:03:14;;;;;;;;;;;12.80;99.90;;;;;;5027975;28;20047;-82
2021/09/30 09:05:41;;;;;;;;;;;12.90;99.90;;;;;;5027798;28;20430;-82
2021/09/30 09:08:10;;;;;;;;;;;12.90;99.90;;;;;;5027283;28;19965;-82
2021/09/30 09:10:37;;;;;;;;;;;12.90;99.90;;;;;;5030978;28;19976;-82
2021/09/30 09:13:04;;;;;;;;;;;13.10;99.90;;;;;;5025970;28;20429;-82
2021/09/30 09:15:36;;;;;;;;;;;13.20;99.90;;;;;;5025622;28;19964;-82
2021/09/30 09:18:12;;;;;;;;;;;13.20;99.90;;;;;;5025091;28;20091;-82
2021/09/30 09:20:38;;;;;;;;;;;13.40;99.90;;;;;;5024899;28;19953;-82
2021/09/30 09:23:05;;;;;;;;;;;13.50;99.90;;;;;;5026131;28;19951;-81
2021/09/30 09:25:32;;;;;;;;;;;13.40;99.90;;;;;;5027612;28;19961;-82
2021/09/30 09:28:00;;;;;;;;;;;13.30;99.90;;;;;;5027103;28;20042;-82
2021/09/30 09:30:28;;;;;;;;;;;13.20;99.90;;;;;;5026886;28;19963;-82
2021/09/30 09:33:02;;;;;;;;;;;13.30;99.90;;;;;;5027187;28;19980;-83
2021/09/30 09:35:29;;;;;;;;;;;13.20;99.90;;;;;;5029150;28;19971;-82
2021/09/30 09:38:01;;;;;;;;;;;13.30;99.90;;;;;;5030101;28;19966;-82
2021/09/30 09:40:27;;;;;;;;;;;13.20;99.90;;;;;;5031578;28;20333;-82
2021/09/30 09:42:55;;;;;;;;;;;13.20;99.90;;;;;;5031417;28;19954;-81
2021/09/30 09:45:21;;;;;;;;;;;13.20;99.90;;;;;;5030109;28;19969;-81
2021/09/30 09:47:48;;;;;;;;;;;13.10;99.90;;;;;;5028643;28;19986;-82
2021/09/30 09:50:16;;;;;;;;;;;13.10;99.90;;;;;;5029898;28;19990;-82
2021/09/30 09:52:44;;;;;;;;;;;13.10;99.90;;;;;;5030668;28;19953;-82
2021/09/30 09:55:13;;;;;;;;;;;13.10;99.90;;;;;;5031607;28;19950;-81
2021/09/30 09:57:40;;;;;;;;;;;13.10;99.90;;;;;;5030604;28;19968;-81
2021/09/30 10:00:16;;;;;;;;;;;13.10;99.90;;;;;;5032908;28;19979;-81
2021/09/30 10:02:42;;;;;;;;;;;13.10;99.90;;;;;;5032050;28;19959;-81
2021/09/30 10:05:09;;;;;;;;;;;13.20;99.90;;;;;;5030159;28;19959;-81
2021/09/30 10:07:35;;;;;;;;;;;13.40;99.90;;;;;;5029653;28;20010;-81
2021/09/30 10:10:02;;;;;;;;;;;13.50;99.90;;;;;;5031953;28;19954;-81
2021/09/30 10:12:29;;;;;;;;;;;13.70;99.90;;;;;;5032267;28;20043;-80
2021/09/30 10:14:56;;;;;;;;;;;13.70;99.90;;;;;;5032035;28;19957;-81
2021/09/30 10:17:24;;;;;;;;;;;13.80;99.90;;;;;;5031718;28;19980;-82
2021/09/30 10:19:51;;;;;;;;;;;13.90;99.90;;;;;;5032261;28;19940;-82
2021/09/30 10:22:17;;;;;;;;;;;14.00;99.90;;;;;;5032873;28;19960;-82
2021/09/30 10:24:44;;;;;;;;;;;14.10;99.90;;;;;;5032602;28;20015;-81
2021/09/30 10:27:12;;;;;;;;;;;14.20;99.90;;;;;;5031991;28;19970;-82
2021/09/30 10:29:39;;;;;;;;;;;14.30;99.90;;;;;;5030417;28;19946;-81
2021/09/30 10:32:08;;;;;;;;;;;14.40;99.90;;;;;;5029447;28;21527;-81
2021/09/30 10:34:37;;;;;;;;;;;14.40;99.90;;;;;;5028715;28;19957;-81
2021/09/30 10:37:20;;;;;;;;;;;14.50;99.90;;;;;;5029049;28;19974;-81
2021/09/30 10:40:06;;;;;;;;;;;14.50;99.90;;;;;;5030154;28;19951;-81
2021/09/30 10:42:44;;;;;;;;;;;14.60;99.90;;;;;;5030209;28;19951;-81
2021/09/30 10:45:11;;;;;;;;;;;14.70;99.90;;;;;;5029666;28;20032;-81
2021/09/30 10:47:38;;;;;;;;;;;14.60;99.90;;;;;;5029063;28;19966;-81
2021/09/30 10:50:05;;;;;;;;;;;14.70;99.90;;;;;;5029442;28;19948;-81
2021/09/30 10:52:32;;;;;;;;;;;14.70;99.90;;;;;;5029300;28;19967;-81
2021/09/30 10:55:23;;;;;;;;;;;14.70;99.90;;;;;;5029439;28;19947;-82
2021/09/30 10:57:51;;;;;;;;;;;14.80;99.90;;;;;;5029861;28;20068;-82
2021/09/30 11:00:36;;;;;;;;;;;14.80;99.90;;;;;;5030817;28;19949;-81
2021/09/30 11:03:21;;;;;;;;;;;14.90;99.90;;;;;;5033875;28;19962;-81
2021/09/30 11:06:06;;;;;;;;;;;15.00;99.90;;;;;;5033522;28;19960;-82
2021/09/30 11:08:33;;;;;;;;;;;15.10;99.90;;;;;;5032468;28;19967;-82
2021/09/30 11:11:13;;;;;;;;;;;15.10;99.90;;;;;;5030547;28;20300;-81
2021/09/30 11:13:42;;;;;;;;;;;15.00;99.90;;;;;;5031161;28;20004;-81
2021/09/30 11:16:10;;;;;;;;;;;15.10;99.90;;;;;;5033429;28;19947;-81
2021/09/30 11:18:41;;;;;;;;;;;15.20;99.90;;;;;;5036224;28;19973;-81
2021/09/30 11:21:22;;;;;;;;;;;15.30;99.90;;;;;;5035873;28;19950;-82
2021/09/30 11:23:49;;;;;;;;;;;15.40;99.90;;;;;;5034078;28;20043;-81
2021/09/30 11:26:16;;;;;;;;;;;15.60;99.90;;;;;;5033331;28;20061;-81
2021/09/30 11:28:43;;;;;;;;;;;15.70;99.90;;;;;;5032385;28;19977;-81
2021/09/30 11:31:22;;;;;;;;;;;15.80;99.90;;;;;;5032632;28;19949;-81
2021/09/30 11:33:49;;;;;;;;;;;15.60;99.90;;;;;;5030915;28;19956;-82
2021/09/30 11:36:16;;;;;;;;;;;15.40;99.90;;;;;;5031223;28;19976;-83
2021/09/30 11:38:42;;;;;;;;;;;15.30;99.90;;;;;;5030064;28;19968;-83
2021/09/30 11:41:09;;;;;;;;;;;15.30;99.90;;;;;;5030251;28;19949;-82
2021/09/30 11:43:36;;;;;;;;;;;15.30;99.90;;;;;;5030195;28;19948;-83
2021/09/30 11:46:17;;;;;;;;;;;15.10;99.90;;;;;;5030226;28;19964;-81
2021/09/30 11:48:55;;;;;;;;;;;15.20;99.90;;;;;;5030444;28;19963;-81
2021/09/30 11:51:28;;;;;;;;;;;15.20;99.90;;;;;;5031222;28;19982;-81
2021/09/30 11:53:55;;;;;;;;;;;15.10;99.90;;;;;;5030545;28;19976;-81
2021/09/30 11:56:21;;;;;;;;;;;15.00;99.90;;;;;;5030406;28;19947;-81
2021/09/30 11:58:57;;;;;;;;;;;15.00;99.90;;;;;;5030341;28;19976;-81
2021/09/30 12:01:31;;;;;;;;;;;14.90;99.90;;;;;;5030560;28;19950;-82
2021/09/30 12:03:59;;;;;;;;;;;14.80;99.90;;;;;;5031195;28;19946;-81
2021/09/30 12:06:36;;;;;;;;;;;14.90;99.90;;;;;;5029533;28;19974;-81
2021/09/30 12:09:03;;;;;;;;;;;14.80;99.90;;;;;;5029267;28;19947;-82
2021/09/30 12:11:31;;;;;;;;;;;14.90;99.90;;;;;;5029321;28;19969;-81
2021/09/30 12:13:58;;;;;;;;;;;14.90;99.90;;;;;;5028243;28;19978;-82
2021/09/30 12:16:24;;;;;;;;;;;14.90;99.90;;;;;;5029474;28;19951;-81
2021/09/30 12:18:58;;;;;;;;;;;14.80;99.90;;;;;;5028719;28;19968;-82
2021/09/30 12:21:35;;;;;;;;;;;14.80;99.90;;;;;;5027570;28;19994;-82
2021/09/30 12:24:01;;;;;;;;;;;14.80;99.90;;;;;;5027687;28;19960;-81
2021/09/30 12:26:30;;;;;;;;;;;14.80;99.90;;;;;;5025487;28;20019;-81
2021/09/30 12:29:01;;;;;;;;;;;14.80;99.90;;;;;;5072262;23;19997;-89
2021/09/30 12:31:36;;;;;;;;;;;14.90;99.90;;;;;;5057046;28;19972;-89
2021/09/30 12:34:21;;;;;;;;;;;15.00;99.90;;;;;;5051330;28;20376;-88
2021/09/30 12:36:49;;;;;;;;;;;15.90;99.90;;;;;;5050566;28;20078;-88
2021/09/30 12:39:24;;;;;;;;;;;15.30;99.90;;;;;;5030641;28;19961;-87
2021/09/30 12:41:51;;;;;;;;;;;15.50;99.90;;;;;;5032598;28;19960;-86
2021/09/30 12:44:18;;;;;;;;;;;15.70;99.90;;;;;;5033436;28;19942;-87
2021/09/30 12:46:45;;;;;;;;;;;15.80;99.90;;;;;;5033507;28;19963;-87
2021/09/30 12:49:13;;;;;;;;;;;15.90;99.90;;;;;;5027613;28;19964;-87
2021/09/30 12:51:40;;;;;;;;;;;15.90;99.90;;;;;;5029203;28;19950;-86
2021/09/30 12:54:08;;;;;;;;;;;16.00;99.90;;;;;;5036701;28;19949;-86
2021/09/30 12:56:36;;;;;;;;;;;16.10;99.90;;;;;;5037911;28;19950;-88
2021/09/30 12:59:14;;;;;;;;;;;16.20;99.90;;;;;;5029155;28;19963;-87
2021/09/30 13:01:40;;;;;;;;;;;16.30;99.90;;;;;;5032842;28;19940;-87
2021/09/30 13:04:09;;;;;;;;;;;16.40;99.90;;;;;;5034713;28;19976;-87
2021/09/30 13:06:37;;;;;;;;;;;16.30;99.90;;;;;;5029887;28;20037;-87
2021/09/30 13:09:04;;;;;;;;;;;16.20;99.90;;;;;;5028514;28;20041;-87
2021/09/30 13:11:33;;;;;;;;;;;16.10;99.90;;;;;;5030239;28;19954;-87
2021/09/30 13:14:16;;;;;;;;;;;16.20;99.90;;;;;;5029391;28;19946;-88
2021/09/30 13:16:43;;;;;;;;;;;16.00;99.90;;;;;;5033371;28;19957;-87
2021/09/30 13:19:10;;;;;;;;;;;16.00;99.90;;;;;;5033764;28;19966;-87
2021/09/30 13:21:54;;;;;;;;;;;15.90;99.90;;;;;;5033257;28;19950;-87
2021/09/30 13:24:21;;;;;;;;;;;16.00;99.90;;;;;;5031430;28;19943;-87
2021/09/30 13:26:49;;;;;;;;;;;16.40;99.90;;;;;;5034771;28;20059;-85
2021/09/30 13:29:17;;;;;;;;;;;16.10;99.90;;;;;;5032816;28;19966;-86
2021/09/30 13:31:44;;;;;;;;;;;16.10;99.90;;;;;;5033576;28;20401;-84
2021/09/30 13:34:10;;;;;;;;;;;16.10;99.90;;;;;;5038266;28;20399;-88
2021/09/30 13:36:38;;;;;;;;;;;16.10;99.90;;;;;;5038362;28;19938;-84
2021/09/30 13:39:05;;;;;;;;;;;16.20;99.90;;;;;;5037827;28;20007;-84
2021/09/30 13:41:35;;;;;;;;;;;16.30;99.90;;;;;;5037269;28;19958;-89
2021/09/30 13:44:03;;;;;;;;;;;16.40;99.90;;;;;;5035221;28;19948;-85
2021/09/30 13:46:29;;;;;;;;;;;16.40;99.90;;;;;;5036455;28;19978;-85
2021/09/30 13:48:56;;;;;;;;;;;16.50;99.90;;;;;;5037727;28;20406;-85
2021/09/30 13:51:23;;;;;;;;;;;16.40;99.90;;;;;;5039170;28;19950;-85
2021/09/30 13:53:50;;;;;;;;;;;16.40;99.90;;;;;;5038694;28;19935;-85
2021/09/30 13:56:16;;;;;;;;;;;16.40;99.90;;;;;;5038532;28;19957;-86
2021/09/30 13:58:43;;;;;;;;;;;16.20;99.90;;;;;;5037435;28;19950;-87
2021/09/30 14:01:11;;;;;;;;;;;16.10;99.90;;;;;;5037239;28;19945;-86
2021/09/30 14:03:37;;;;;;;;;;;16.10;99.90;;;;;;5038548;28;19962;-87
2021/09/30 14:06:04;;;;;;;;;;;16.10;99.90;;;;;;5039125;28;19955;-87
2021/09/30 14:08:32;;;;;;;;;;;16.00;99.90;;;;;;5038545;28;19975;-86
2021/09/30 14:10:58;;;;;;;;;;;16.00;99.90;;;;;;5038333;28;19950;-88
2021/09/30 14:13:25;;;;;;;;;;;16.10;99.90;;;;;;5035402;28;19996;-89
2021/09/30 14:15:51;;;;;;;;;;;16.10;99.90;;;;;;5034271;28;19950;-87
2021/09/30 14:18:19;;;;;;;;;;;16.20;99.90;;;;;;5032544;28;19968;-88
2021/09/30 14:20:48;;;;;;;;;;;16.10;99.90;;;;;;5030135;28;19975;-89
2021/09/30 14:23:14;;;;;;;;;;;16.10;99.90;;;;;;5028301;28;19957;-88
2021/09/30 14:25:41;;;;;;;;;;;16.00;99.90;;;;;;5026779;28;19961;-88
2021/09/30 14:28:07;;;;;;;;;;;16.00;99.90;;;;;;5028090;28;19966;-88
2021/09/30 14:30:34;;;;;;;;;;;15.90;99.90;;;;;;5029287;28;19951;-89
2021/09/30 14:33:00;;;;;;;;;;;15.90;99.90;;;;;;5029222;28;19948;-89
2021/09/30 14:35:28;;;;;;;;;;;15.80;99.90;;;;;;5030532;28;19950;-88
2021/09/30 14:37:55;;;;;;;;;;;15.80;99.90;;;;;;5028360;28;19964;-88
2021/09/30 14:40:21;;;;;;;;;;;15.80;99.90;;;;;;5025386;28;19994;-88
2021/09/30 14:42:48;;;;;;;;;;;15.70;99.90;;;;;;5024190;28;20479;-88
2021/09/30 14:45:16;;;;;;;;;;;15.70;99.90;;;;;;5025645;28;19947;-89
2021/09/30 14:47:43;;;;;;;;;;;15.70;99.90;;;;;;5022713;28;19975;-88
2021/09/30 14:50:10;;;;;;;;;;;15.70;99.90;;;;;;5023144;28;19996;-88
2021/09/30 14:52:38;;;;;;;;;;;15.70;99.90;;;;;;5022261;28;19973;-88
2021/09/30 14:55:05;;;;;;;;;;;15.60;99.90;;;;;;5025010;28;20000;-86
2021/09/30 14:57:32;;;;;;;;;;;15.60;99.90;;;;;;5031650;28;19970;-88
2021/09/30 14:59:59;;;;;;;;;;;15.50;99.90;;;;;;5034138;28;19950;-87
2021/09/30 15:02:27;;;;;;;;;;;15.50;99.90;;;;;;5034281;28;19976;-87
2021/09/30 15:04:54;;;;;;;;;;;15.50;99.90;;;;;;5031119;28;20032;-87
2021/09/30 15:07:21;;;;;;;;;;;15.50;99.90;;;;;;5029814;28;19977;-88
2021/09/30 15:09:49;;;;;;;;;;;15.50;99.90;;;;;;5031293;28;19974;-87
2021/09/30 15:12:15;;;;;;;;;;;15.40;99.90;;;;;;5031606;28;19975;-87
2021/09/30 15:14:42;;;;;;;;;;;15.40;99.90;;;;;;5029895;28;20008;-88
2021/09/30 15:17:12;;;;;;;;;;;15.40;99.90;;;;;;5029932;28;19950;-86
2021/09/30 15:19:49;;;;;;;;;;;15.40;99.90;;;;;;5030857;28;19952;-88
2021/09/30 15:22:16;;;;;;;;;;;15.40;99.90;;;;;;5032159;28;19929;-87
2021/09/30 15:24:42;;;;;;;;;;;15.40;99.90;;;;;;5030637;28;19979;-88
2021/09/30 15:27:11;;;;;;;;;;;15.40;99.90;;;;;;5027227;28;19965;-87
2021/09/30 15:29:38;;;;;;;;;;;15.30;99.90;;;;;;5026208;28;19943;-88
2021/09/30 15:32:07;;;;;;;;;;;15.40;99.90;;;;;;5025565;28;20021;-89
2021/09/30 15:34:33;;;;;;;;;;;15.40;99.90;;;;;;5024445;28;19994;-87
2021/09/30 15:37:00;;;;;;;;;;;15.30;99.90;;;;;;5024206;28;20414;-88
2021/09/30 15:39:26;;;;;;;;;;;15.30;99.90;;;;;;5023999;28;19948;-88
2021/09/30 15:41:53;;;;;;;;;;;15.30;99.90;;;;;;5024365;28;19948;-88
2021/09/30 15:44:21;;;;;;;;;;;15.30;99.90;;;;;;5023905;28;20472;-88
2021/09/30 15:46:49;;;;;;;;;;;15.30;99.90;;;;;;5027058;28;19963;-88
2021/09/30 15:49:15;;;;;;;;;;;15.30;99.90;;;;;;5026902;28;19967;-88
2021/09/30 15:51:42;;;;;;;;;;;15.30;99.90;;;;;;5026269;28;20003;-88
2021/09/30 15:54:08;;;;;;;;;;;15.20;99.90;;;;;;5027994;28;19948;-90
2021/09/30 15:56:35;;;;;;;;;;;15.10;99.90;;;;;;5026343;28;19962;-87
2021/09/30 15:59:02;;;;;;;;;;;15.10;99.90;;;;;;5034355;28;19971;-88
2021/09/30 16:01:32;;;;;;;;;;;15.10;99.90;;;;;;5041047;28;19963;-87
2021/09/30 16:03:58;;;;;;;;;;;15.00;99.90;;;;;;5038352;28;19932;-88
2021/09/30 16:06:25;;;;;;;;;;;15.00;99.90;;;;;;5036796;28;19987;-87
2021/09/30 16:08:51;;;;;;;;;;;14.90;99.90;;;;;;5031583;28;19942;-89
2021/09/30 16:11:18;;;;;;;;;;;14.90;99.90;;;;;;5034290;28;19942;-87
2021/09/30 16:13:44;;;;;;;;;;;14.80;99.90;;;;;;5032045;28;19948;-88
2021/09/30 16:16:11;;;;;;;;;;;14.70;99.90;;;;;;5033376;28;19992;-88
2021/09/30 16:18:40;;;;;;;;;;;14.70;99.90;;;;;;5033128;28;20045;-87
2021/09/30 16:21:07;;;;;;;;;;;14.70;99.90;;;;;;5032618;28;19955;-87
2021/09/30 16:23:34;;;;;;;;;;;14.60;99.90;;;;;;5033022;28;19953;-87
2021/09/30 16:26:01;;;;;;;;;;;14.40;99.90;;;;;;5032081;28;19958;-87
2021/09/30 16:28:27;;;;;;;;;;;14.60;99.90;;;;;;5031575;28;19973;-87
2021/09/30 16:30:54;;;;;;;;;;;14.50;99.90;;;;;;5028628;28;19978;-87
2021/09/30 16:33:21;;;;;;;;;;;14.40;99.90;;;;;;5027652;28;19954;-89
2021/09/30 16:35:48;;;;;;;;;;;14.40;99.90;;;;;;5031622;28;19946;-88
2021/09/30 16:38:17;;;;;;;;;;;14.30;99.90;;;;;;5040284;28;19973;-87
2021/09/30 16:40:44;;;;;;;;;;;14.30;99.90;;;;;;5040033;28;19948;-85
2021/09/30 16:43:10;;;;;;;;;;;14.30;99.90;;;;;;5039914;28;19941;-87
2021/09/30 16:45:37;;;;;;;;;;;14.30;99.90;;;;;;5032861;28;19949;-89
2021/09/30 16:48:04;;;;;;;;;;;14.30;99.90;;;;;;5026283;28;19972;-87
2021/09/30 16:50:31;;;;;;;;;;;14.20;99.90;;;;;;5030419;28;19969;-87
2021/09/30 16:52:59;;;;;;;;;;;14.20;99.90;;;;;;5033817;28;19953;-86
2021/09/30 16:55:25;;;;;;;;;;;14.20;99.90;;;;;;5039695;28;19944;-86
2021/09/30 16:57:52;;;;;;;;;;;14.10;99.90;;;;;;5035446;28;20000;-87
2021/09/30 17:00:19;;;;;;;;;;;14.10;99.90;;;;;;5034467;28;19938;-88
2021/09/30 17:02:46;;;;;;;;;;;14.10;99.90;;;;;;5035414;28;19981;-87
2021/09/30 17:05:13;;;;;;;;;;;14.00;99.90;;;;;;5038387;28;19999;-86